createdAt,value
2019-02-25T00:01:49.324Z,239.67
2019-02-25T00:06:00.321Z,232.57
2019-02-25T00:10:11.508Z,241.37
2019-02-25T00:14:22.785Z,244.40
2019-02-25T00:18:33.807Z,233.07
2019-02-25T00:22:44.793Z,234.93
2019-02-25T00:26:55.366Z,236.90
2019-02-25T00:31:06.419Z,233.97
2019-02-25T00:35:17.408Z,228.70
2019-02-25T00:39:28.533Z,233.90
2019-02-25T00:43:39.640Z,228.20
2019-02-25T00:47:50.847Z,232.03
2019-02-25T00:52:01.990Z,240.70
2019-02-25T00:56:12.984Z,249.60
2019-02-25T01:00:25.775Z,244.73
2019-02-25T01:04:37.705Z,252.17
2019-02-25T01:08:48.727Z,254.13
2019-02-25T01:12:59.918Z,242.23
2019-02-25T01:17:10.914Z,230.87
2019-02-25T01:21:22.022Z,242.27
2019-02-25T01:25:32.704Z,237.90
2019-02-25T01:29:44.184Z,236.97
2019-02-25T01:33:54.767Z,240.07
2019-02-25T01:38:06.293Z,227.33
2019-02-25T01:42:17.465Z,222.40
2019-02-25T01:46:28.567Z,231.67
2019-02-25T01:50:39.566Z,227.40
2019-02-25T01:54:50.568Z,230.87
2019-02-25T01:59:01.671Z,232.80
2019-02-25T02:03:12.675Z,233.07
2019-02-25T02:07:23.701Z,234.57
2019-02-25T02:11:34.714Z,237.67
2019-02-25T02:15:45.943Z,236.87
2019-02-25T02:19:57.049Z,236.00
2019-02-25T02:24:08.159Z,229.97
2019-02-25T02:28:19.283Z,244.53
2019-02-25T02:32:30.421Z,250.10
2019-02-25T02:36:41.552Z,238.00
2019-02-25T02:40:53.457Z,233.67
2019-02-25T02:45:07.675Z,237.77
2019-02-25T02:49:18.725Z,239.47
2019-02-25T02:53:29.738Z,238.20
2019-02-25T02:57:39.766Z,235.87
2019-02-25T03:01:50.876Z,236.47
2019-02-25T03:06:02.004Z,232.50
2019-02-25T03:10:15.146Z,225.63
2019-02-25T03:14:26.330Z,232.43
2019-02-25T03:18:37.337Z,245.07
2019-02-25T03:22:48.874Z,243.63
2019-02-25T03:26:59.883Z,241.67
2019-02-25T03:31:10.886Z,227.70
2019-02-25T03:35:21.873Z,231.67
2019-02-25T03:39:32.913Z,227.50
2019-02-25T03:43:44.043Z,238.67
2019-02-25T03:47:55.084Z,231.83
2019-02-25T03:52:06.083Z,233.87
2019-02-25T03:56:17.090Z,231.37
2019-02-25T04:00:29.609Z,229.80
2019-02-25T04:04:41.224Z,240.90
2019-02-25T04:08:52.309Z,232.10
2019-02-25T04:13:22.771Z,235.53
2019-02-25T04:17:33.850Z,245.57
2019-02-25T04:21:43.894Z,229.83
2019-02-25T04:25:54.973Z,235.83
2019-02-25T04:30:11.896Z,230.50
2019-02-25T04:34:23.021Z,231.70
2019-02-25T04:38:34.136Z,239.33
2019-02-25T04:42:45.265Z,225.67
2019-02-25T04:46:56.363Z,232.53
2019-02-25T04:51:07.473Z,225.80
2019-02-25T04:55:18.640Z,237.97
2019-02-25T04:59:29.771Z,231.07
2019-02-25T05:03:40.868Z,236.07
2019-02-25T05:07:51.865Z,238.97
2019-02-25T05:12:02.964Z,230.87
2019-02-25T05:16:14.171Z,233.37
2019-02-25T05:20:26.645Z,243.43
2019-02-25T05:24:37.713Z,233.90
2019-02-25T05:28:48.735Z,232.60
2019-02-25T05:32:59.720Z,232.07
2019-02-25T05:37:10.720Z,229.90
2019-02-25T05:41:21.853Z,231.77
2019-02-25T05:45:32.841Z,222.67
2019-02-25T05:49:43.861Z,226.43
2019-02-25T05:53:54.985Z,234.17
2019-02-25T05:58:05.998Z,232.03
2019-02-25T06:02:17.003Z,224.17
2019-02-25T06:06:28.323Z,225.73
2019-02-25T06:10:39.285Z,218.37
2019-02-25T06:14:50.270Z,233.90
2019-02-25T06:19:01.372Z,225.13
2019-02-25T06:23:13.145Z,239.60
2019-02-25T06:27:30.622Z,232.50
2019-02-25T06:31:36.904Z,230.45
2019-02-25T06:35:47.995Z,225.67
2019-02-25T06:39:59.083Z,222.77
2019-02-25T06:44:10.925Z,228.10
2019-02-25T06:48:21.915Z,233.43
2019-02-25T06:52:33.104Z,236.43
2019-02-25T06:56:44.100Z,235.90
2019-02-25T07:00:55.175Z,236.43
2019-02-25T07:05:09.749Z,238.90
2019-02-25T07:09:38.902Z,227.73
2019-02-25T07:13:54.477Z,233.43
2019-02-25T07:18:07.203Z,243.50
2019-02-25T07:22:19.862Z,228.27
2019-02-25T07:26:35.307Z,251.88
2019-02-25T07:30:47.982Z,227.50
2019-02-25T07:35:02.058Z,245.30
2019-02-25T07:39:17.565Z,236.57
2019-02-25T07:43:30.305Z,236.10
2019-02-25T07:47:42.959Z,261.30
2019-02-25T07:52:04.199Z,246.50
2019-02-25T07:56:22.563Z,249.03
2019-02-25T08:00:44.338Z,253.93
2019-02-25T08:05:05.930Z,243.20
2019-02-25T08:09:34.903Z,243.43
2019-02-25T08:13:53.548Z,253.03
2019-02-25T08:18:06.289Z,246.67
2019-02-25T08:22:22.959Z,243.83
2019-02-25T08:26:38.313Z,254.33
2019-02-25T08:31:09.339Z,267.87
2019-02-25T08:35:47.756Z,281.10
2019-02-25T08:40:18.600Z,279.20
2019-02-25T08:44:41.157Z,252.53
2019-02-25T08:48:54.119Z,253.83
2019-02-25T08:53:05.123Z,268.03
2019-02-25T08:57:16.117Z,280.13
2019-02-25T09:01:27.224Z,256.47
2019-02-25T09:05:38.604Z,253.30
2019-02-25T09:09:49.717Z,270.33
2019-02-25T09:14:00.815Z,259.20
2019-02-25T09:18:11.835Z,269.50
2019-02-25T09:22:22.959Z,262.50
2019-02-25T09:26:34.064Z,275.40
2019-02-25T09:30:45.347Z,271.40
2019-02-25T09:34:56.500Z,271.53
2019-02-25T09:39:10.742Z,261.47
2019-02-25T09:43:22.135Z,268.47
2019-02-25T09:47:33.893Z,267.97
2019-02-25T09:51:46.176Z,276.23
2019-02-25T09:55:57.222Z,273.97
2019-02-25T10:00:18.595Z,265.77
2019-02-25T10:04:30.483Z,269.17
2019-02-25T10:08:41.645Z,269.50
2019-02-25T10:12:52.789Z,277.50
2019-02-25T10:17:03.793Z,271.43
2019-02-25T10:21:14.938Z,277.53
2019-02-25T10:25:25.952Z,284.27
2019-02-25T10:29:37.076Z,267.03
2019-02-25T10:33:48.172Z,270.83
2019-02-25T10:38:00.946Z,266.77
2019-02-25T10:42:13.314Z,265.73
2019-02-25T10:46:24.423Z,265.97
2019-02-25T10:50:36.037Z,277.73
2019-02-25T10:54:48.243Z,267.63
2019-02-25T10:59:01.912Z,267.97
2019-02-25T11:03:15.147Z,295.37
2019-02-25T11:07:25.693Z,265.50
2019-02-25T11:11:38.490Z,255.77
2019-02-25T11:15:49.613Z,276.20
2019-02-25T11:20:02.798Z,272.50
2019-02-25T11:24:14.450Z,262.90
2019-02-25T11:28:26.247Z,261.93
2019-02-25T11:32:37.673Z,260.37
2019-02-25T11:36:50.478Z,262.25
2019-02-25T11:41:02.028Z,257.12
2019-02-25T11:45:20.855Z,257.00
2019-02-25T11:49:30.891Z,270.80
2019-02-25T11:53:42.062Z,262.88
2019-02-25T11:57:53.199Z,271.27
2019-02-25T12:02:04.324Z,267.85
2019-02-25T12:06:15.336Z,260.98
2019-02-25T12:10:26.453Z,268.73
2019-02-25T12:14:37.708Z,254.60
2019-02-25T12:18:48.846Z,264.63
2019-02-25T12:22:59.881Z,261.50
2019-02-25T12:27:11.875Z,269.85
2019-02-25T12:31:23.082Z,268.57
2019-02-25T12:35:34.204Z,264.80
2019-02-25T12:39:45.415Z,259.00
2019-02-25T12:43:56.550Z,266.88
2019-02-25T12:48:07.839Z,296.30
2019-02-25T12:52:18.954Z,260.03
2019-02-25T12:56:30.069Z,259.47
2019-02-25T13:00:43.375Z,266.37
2019-02-25T13:04:54.455Z,257.03
2019-02-25T13:09:08.654Z,258.80
2019-02-25T13:13:19.678Z,262.27
2019-02-25T13:17:30.696Z,257.03
2019-02-25T13:21:41.816Z,257.60
2019-02-25T13:25:55.456Z,256.30
2019-02-25T13:30:08.791Z,257.37
2019-02-25T13:34:19.937Z,264.30
2019-02-25T13:38:31.160Z,257.57
2019-02-25T13:42:42.255Z,261.37
2019-02-25T13:46:53.689Z,287.57
2019-02-25T13:51:07.728Z,265.13
2019-02-25T13:55:21.921Z,263.43
2019-02-25T13:59:34.803Z,265.83
2019-02-25T14:03:46.026Z,262.00
2019-02-25T14:07:58.166Z,264.50
2019-02-25T14:12:09.318Z,260.20
2019-02-25T14:16:20.532Z,265.33
2019-02-25T14:20:31.724Z,258.30
2019-02-25T14:24:42.736Z,258.83
2019-02-25T14:28:53.811Z,285.20
2019-02-25T14:33:07.765Z,259.03
2019-02-25T14:37:20.469Z,258.83
2019-02-25T14:41:31.464Z,257.77
2019-02-25T14:45:46.196Z,250.13
2019-02-25T14:49:55.487Z,260.03
2019-02-25T14:54:06.591Z,249.63
2019-02-25T14:58:17.830Z,263.10
2019-02-25T15:02:28.842Z,261.67
2019-02-25T15:06:40.049Z,248.53
2019-02-25T15:10:51.213Z,251.97
2019-02-25T15:15:03.115Z,255.93
2019-02-25T15:19:15.455Z,246.37
2019-02-25T15:23:27.978Z,249.37
2019-02-25T15:27:39.570Z,258.73
2019-02-25T15:31:50.925Z,256.37
2019-02-25T15:36:03.927Z,253.33
2019-02-25T15:40:19.924Z,258.30
2019-02-25T15:44:28.995Z,257.40
2019-02-25T15:48:41.553Z,266.60
2019-02-25T15:52:53.163Z,258.63
2019-02-25T15:57:04.349Z,258.37
2019-02-25T16:01:16.298Z,258.70
2019-02-25T16:05:29.719Z,253.85
2019-02-25T16:09:41.465Z,255.43
2019-02-25T16:13:53.492Z,248.07
2019-02-25T16:18:05.449Z,256.70
2019-02-25T16:22:16.484Z,252.63
2019-02-25T16:26:27.490Z,255.37
2019-02-25T16:30:42.916Z,255.87
2019-02-25T16:34:55.987Z,252.93
2019-02-25T16:39:09.638Z,251.87
2019-02-25T16:43:21.361Z,252.67
2019-02-25T16:47:35.511Z,250.70
2019-02-25T16:51:45.258Z,259.67
2019-02-25T16:55:57.612Z,258.27
2019-02-25T17:00:13.933Z,275.40
2019-02-25T17:04:27.194Z,262.63
2019-02-25T17:08:37.835Z,257.10
2019-02-25T17:12:50.034Z,252.40
2019-02-25T17:17:01.573Z,249.27
2019-02-25T17:21:12.571Z,272.07
